Search for airport 
image banner adimage banner adimage banner ad
image banner ad

33CN - Platform Hillhouse

Located in Carpinteria, United States

ICAO - 33CN, IATA -

Data provided by Airmate  

General information

Coordinates: N34°19'52" W119°36'16"
Elevation is 98 feet MSL.
Magnetic variation is 14° East
View others Airports in California

Operational data

Special qualification required
Current time UTC:
Current local time:
Weather at : KSBA - Santa Barbara Muni ( 24 km )
METAR: KSBA 270553Z 00000KT 10SM CLR 16/14 A2998 RMK AO2 SLP151 T01560139 10217 20156 53019 $
TAF: KSBA 270537Z 2706/2806 VRB03KT P6SM SKC FM270900 VRB03KT P6SM OVC008 FM271600 16006KT P6SM BKN012 FM271800 23008KT P6SM SKC FM280100 27006KT P6SM SKC
View NOTAMs / SUP AIP / TFR affecting this airport [VIEW]
Communications frequencies: [VIEW]

Runways:

Airport contact information

Address: Carpinteria United States

Satellite view of 33CN